<?xml version="1.0" encoding="UTF-8" standalone="no" ?>
<gpx xmlns="http://www.topografix.com/GPX/1/1" xmlns:xsi="http://www.w3.org/2001/XMLSchema-instance" xsi:schemaLocation="http://www.topografix.com/GPX/1/1 http://www.topografix.com/GPX/1/1/gpx.xsd" version="1.1" creator="VisuGPX - https://www.visugpx.com">
  <metadata>
    <name>Rando LN</name>
  </metadata>
  <trk>
    <name><![CDATA[Bagnols-les-Bains]]></name>
    <extensions>
      <line xmlns="http://www.topografix.com/GPX/gpx_style/0/2">
        <color>fb00ff</color>
        <width>4</width>
      </line>
    </extensions>
    <trkseg>
      <trkpt lat="44.4334" lon="3.59532">
        <ele>1212.859</ele>
        <time>2021-01-11T16:44:23Z</time>
      </trkpt>
      <trkpt lat="44.4334" lon="3.59532">
        <ele>1212.859</ele>
        <time>2021-01-11T16:44:23Z</time>
      </trkpt>
      <trkpt lat="44.43371" lon="3.59678">
        <ele>1206.12</ele>
        <time>2021-01-11T16:44:03Z</time>
      </trkpt>
      <trkpt lat="44.4342" lon="3.59756">
        <ele>1204.03</ele>
        <time>2021-01-11T16:43:43Z</time>
      </trkpt>
      <trkpt lat="44.43401" lon="3.59799">
        <ele>1202.896</ele>
        <time>2021-01-11T16:43:23Z</time>
      </trkpt>
      <trkpt lat="44.43383" lon="3.59807">
        <ele>1204.649</ele>
        <time>2021-01-11T16:43:03Z</time>
      </trkpt>
      <trkpt lat="44.43352" lon="3.5979">
        <ele>1203.108</ele>
        <time>2021-01-11T16:42:43Z</time>
      </trkpt>
      <trkpt lat="44.4334" lon="3.59824">
        <ele>1207.913</ele>
        <time>2021-01-11T16:42:23Z</time>
      </trkpt>
      <trkpt lat="44.43395" lon="3.59927">
        <ele>1221.649</ele>
        <time>2021-01-11T16:42:03Z</time>
      </trkpt>
      <trkpt lat="44.43303" lon="3.59919">
        <ele>1224.437</ele>
        <time>2021-01-11T16:41:43Z</time>
      </trkpt>
      <trkpt lat="44.43279" lon="3.59936">
        <ele>1227.711</ele>
        <time>2021-01-11T16:41:23Z</time>
      </trkpt>
      <trkpt lat="44.43236" lon="3.59979">
        <ele>1231.679</ele>
        <time>2021-01-11T16:41:03Z</time>
      </trkpt>
      <trkpt lat="44.43144" lon="3.60142">
        <ele>1240.967</ele>
        <time>2021-01-11T16:40:43Z</time>
      </trkpt>
      <trkpt lat="44.43113" lon="3.60245">
        <ele>1244.025</ele>
        <time>2021-01-11T16:40:23Z</time>
      </trkpt>
      <trkpt lat="44.43101" lon="3.60314">
        <ele>1246.466</ele>
        <time>2021-01-11T16:40:03Z</time>
      </trkpt>
      <trkpt lat="44.43015" lon="3.60631">
        <ele>1256.486</ele>
        <time>2021-01-11T16:39:43Z</time>
      </trkpt>
      <trkpt lat="44.43119" lon="3.60751">
        <ele>1270.222</ele>
        <time>2021-01-11T16:39:23Z</time>
      </trkpt>
      <trkpt lat="44.4323" lon="3.60837">
        <ele>1280.045</ele>
        <time>2021-01-11T16:39:03Z</time>
      </trkpt>
      <trkpt lat="44.43334" lon="3.60914">
        <ele>1294.208</ele>
        <time>2021-01-11T16:38:43Z</time>
      </trkpt>
      <trkpt lat="44.43444" lon="3.6094">
        <ele>1308.62</ele>
        <time>2021-01-11T16:38:23Z</time>
      </trkpt>
      <trkpt lat="44.43487" lon="3.60966">
        <ele>1315.473</ele>
        <time>2021-01-11T16:38:03Z</time>
      </trkpt>
      <trkpt lat="44.43953" lon="3.61352">
        <ele>1377.492</ele>
        <time>2021-01-11T16:37:43Z</time>
      </trkpt>
      <trkpt lat="44.44235" lon="3.61901">
        <ele>1406.879</ele>
        <time>2021-01-11T16:37:23Z</time>
      </trkpt>
      <trkpt lat="44.44265" lon="3.61979">
        <ele>1410.697</ele>
        <time>2021-01-11T16:37:03Z</time>
      </trkpt>
      <trkpt lat="44.44265" lon="3.62022">
        <ele>1411.325</ele>
        <time>2021-01-11T16:36:43Z</time>
      </trkpt>
      <trkpt lat="44.44376" lon="3.62125">
        <ele>1415.063</ele>
        <time>2021-01-11T16:36:23Z</time>
      </trkpt>
      <trkpt lat="44.44437" lon="3.6221">
        <ele>1416.724</ele>
        <time>2021-01-11T16:36:03Z</time>
      </trkpt>
      <trkpt lat="44.44498" lon="3.62313">
        <ele>1414.974</ele>
        <time>2021-01-11T16:35:43Z</time>
      </trkpt>
      <trkpt lat="44.44541" lon="3.62434">
        <ele>1414.49</ele>
        <time>2021-01-11T16:35:23Z</time>
      </trkpt>
      <trkpt lat="44.44615" lon="3.62605">
        <ele>1407.813</ele>
        <time>2021-01-11T16:35:03Z</time>
      </trkpt>
      <trkpt lat="44.447" lon="3.62725">
        <ele>1419.008</ele>
        <time>2021-01-11T16:34:43Z</time>
      </trkpt>
      <trkpt lat="44.44768" lon="3.62794">
        <ele>1424.126</ele>
        <time>2021-01-11T16:34:23Z</time>
      </trkpt>
      <trkpt lat="44.44817" lon="3.62794">
        <ele>1427.233</ele>
        <time>2021-01-11T16:34:03Z</time>
      </trkpt>
      <trkpt lat="44.44976" lon="3.62691">
        <ele>1436.078</ele>
        <time>2021-01-11T16:33:43Z</time>
      </trkpt>
      <trkpt lat="44.45093" lon="3.62648">
        <ele>1440.05</ele>
        <time>2021-01-11T16:33:23Z</time>
      </trkpt>
      <trkpt lat="44.45172" lon="3.62579">
        <ele>1445.438</ele>
        <time>2021-01-11T16:33:03Z</time>
      </trkpt>
      <trkpt lat="44.45258" lon="3.62605">
        <ele>1450.986</ele>
        <time>2021-01-11T16:32:43Z</time>
      </trkpt>
      <trkpt lat="44.45417" lon="3.62605">
        <ele>1453.074</ele>
        <time>2021-01-11T16:32:23Z</time>
      </trkpt>
      <trkpt lat="44.45638" lon="3.62631">
        <ele>1442.835</ele>
        <time>2021-01-11T16:32:03Z</time>
      </trkpt>
      <trkpt lat="44.45687" lon="3.62691">
        <ele>1440.985</ele>
        <time>2021-01-11T16:31:43Z</time>
      </trkpt>
      <trkpt lat="44.45705" lon="3.62751">
        <ele>1435.961</ele>
        <time>2021-01-11T16:31:23Z</time>
      </trkpt>
      <trkpt lat="44.4573" lon="3.6276">
        <ele>1435.284</ele>
        <time>2021-01-11T16:31:03Z</time>
      </trkpt>
      <trkpt lat="44.4576" lon="3.62803">
        <ele>1433.908</ele>
        <time>2021-01-11T16:30:43Z</time>
      </trkpt>
      <trkpt lat="44.45809" lon="3.62897">
        <ele>1431.317</ele>
        <time>2021-01-11T16:30:23Z</time>
      </trkpt>
      <trkpt lat="44.45889" lon="3.62966">
        <ele>1424.725</ele>
        <time>2021-01-11T16:30:03Z</time>
      </trkpt>
      <trkpt lat="44.45975" lon="3.62983">
        <ele>1420.083</ele>
        <time>2021-01-11T16:29:43Z</time>
      </trkpt>
      <trkpt lat="44.46171" lon="3.62991">
        <ele>1409.71</ele>
        <time>2021-01-11T16:29:23Z</time>
      </trkpt>
      <trkpt lat="44.46416" lon="3.6294">
        <ele>1394.648</ele>
        <time>2021-01-11T16:29:03Z</time>
      </trkpt>
      <trkpt lat="44.46594" lon="3.6294">
        <ele>1385.736</ele>
        <time>2021-01-11T16:28:43Z</time>
      </trkpt>
      <trkpt lat="44.46667" lon="3.62949">
        <ele>1386.094</ele>
        <time>2021-01-11T16:28:23Z</time>
      </trkpt>
      <trkpt lat="44.46845" lon="3.63017">
        <ele>1391.635</ele>
        <time>2021-01-11T16:28:03Z</time>
      </trkpt>
      <trkpt lat="44.46992" lon="3.63052">
        <ele>1387.615</ele>
        <time>2021-01-11T16:27:43Z</time>
      </trkpt>
      <trkpt lat="44.47022" lon="3.63086">
        <ele>1386.281</ele>
        <time>2021-01-11T16:27:23Z</time>
      </trkpt>
      <trkpt lat="44.47133" lon="3.63343">
        <ele>1373.284</ele>
        <time>2021-01-11T16:27:03Z</time>
      </trkpt>
      <trkpt lat="44.47151" lon="3.63361">
        <ele>1371.508</ele>
        <time>2021-01-11T16:26:43Z</time>
      </trkpt>
      <trkpt lat="44.47182" lon="3.63369">
        <ele>1372.417</ele>
        <time>2021-01-11T16:26:23Z</time>
      </trkpt>
      <trkpt lat="44.47243" lon="3.63343">
        <ele>1370.825</ele>
        <time>2021-01-11T16:26:03Z</time>
      </trkpt>
      <trkpt lat="44.47359" lon="3.63232">
        <ele>1372.983</ele>
        <time>2021-01-11T16:25:43Z</time>
      </trkpt>
      <trkpt lat="44.4742" lon="3.63189">
        <ele>1372.293</ele>
        <time>2021-01-11T16:25:23Z</time>
      </trkpt>
      <trkpt lat="44.4758" lon="3.63155">
        <ele>1364.911</ele>
        <time>2021-01-11T16:25:03Z</time>
      </trkpt>
      <trkpt lat="44.47672" lon="3.63009">
        <ele>1359.469</ele>
        <time>2021-01-11T16:24:43Z</time>
      </trkpt>
      <trkpt lat="44.47806" lon="3.62888">
        <ele>1348.037</ele>
        <time>2021-01-11T16:24:23Z</time>
      </trkpt>
      <trkpt lat="44.4788" lon="3.62777">
        <ele>1338.998</ele>
        <time>2021-01-11T16:24:03Z</time>
      </trkpt>
      <trkpt lat="44.47941" lon="3.62751">
        <ele>1339.128</ele>
        <time>2021-01-11T16:23:43Z</time>
      </trkpt>
      <trkpt lat="44.48125" lon="3.62743">
        <ele>1332.614</ele>
        <time>2021-01-11T16:23:23Z</time>
      </trkpt>
      <trkpt lat="44.48124" lon="3.62741">
        <ele>1334</ele>
      </trkpt>
      <trkpt lat="44.48149" lon="3.62742">
        <ele>1331.311</ele>
        <time>2019-11-14T12:20:41Z</time>
      </trkpt>
      <trkpt lat="44.48224" lon="3.6277">
        <ele>1333.108</ele>
        <time>2019-11-14T12:21:01Z</time>
      </trkpt>
      <trkpt lat="44.48397" lon="3.62937">
        <ele>1327.136</ele>
        <time>2019-11-14T12:21:21Z</time>
      </trkpt>
      <trkpt lat="44.48484" lon="3.62993">
        <ele>1322.265</ele>
        <time>2019-11-14T12:21:41Z</time>
      </trkpt>
      <trkpt lat="44.48518" lon="3.63015">
        <ele>1321.067</ele>
        <time>2019-11-14T12:22:01Z</time>
      </trkpt>
      <trkpt lat="44.48633" lon="3.63012">
        <ele>1313.064</ele>
        <time>2019-11-14T12:22:21Z</time>
      </trkpt>
      <trkpt lat="44.48691" lon="3.63021">
        <ele>1304.515</ele>
        <time>2019-11-14T12:22:41Z</time>
      </trkpt>
      <trkpt lat="44.48755" lon="3.63021">
        <ele>1288.266</ele>
        <time>2019-11-14T12:23:01Z</time>
      </trkpt>
      <trkpt lat="44.48835" lon="3.63045">
        <ele>1281.574</ele>
        <time>2019-11-14T12:23:21Z</time>
      </trkpt>
      <trkpt lat="44.48907" lon="3.63025">
        <ele>1261.762</ele>
        <time>2019-11-14T12:23:41Z</time>
      </trkpt>
      <trkpt lat="44.48962" lon="3.62982">
        <ele>1246.218</ele>
        <time>2019-11-14T12:24:01Z</time>
      </trkpt>
      <trkpt lat="44.49003" lon="3.62999">
        <ele>1241.498</ele>
        <time>2019-11-14T12:24:21Z</time>
      </trkpt>
      <trkpt lat="44.49171" lon="3.62969">
        <ele>1213.817</ele>
        <time>2019-11-14T12:24:41Z</time>
      </trkpt>
      <trkpt lat="44.493" lon="3.62922">
        <ele>1214.508</ele>
        <time>2019-11-14T12:25:01Z</time>
      </trkpt>
      <trkpt lat="44.49364" lon="3.62929">
        <ele>1213.475</ele>
        <time>2019-11-14T12:25:21Z</time>
      </trkpt>
      <trkpt lat="44.49473" lon="3.62901">
        <ele>1201.054</ele>
        <time>2019-11-14T12:25:41Z</time>
      </trkpt>
      <trkpt lat="44.49562" lon="3.62918">
        <ele>1186.086</ele>
        <time>2019-11-14T12:26:01Z</time>
      </trkpt>
      <trkpt lat="44.49614" lon="3.62993">
        <ele>1186.063</ele>
        <time>2019-11-14T12:26:21Z</time>
      </trkpt>
      <trkpt lat="44.49634" lon="3.63055">
        <ele>1181.844</ele>
        <time>2019-11-14T12:26:41Z</time>
      </trkpt>
      <trkpt lat="44.49709" lon="3.63197">
        <ele>1176.985</ele>
        <time>2019-11-14T12:27:01Z</time>
      </trkpt>
      <trkpt lat="44.49738" lon="3.63334">
        <ele>1176.273</ele>
        <time>2019-11-14T12:27:21Z</time>
      </trkpt>
      <trkpt lat="44.4973" lon="3.63409">
        <ele>1168.931</ele>
        <time>2019-11-14T12:27:41Z</time>
      </trkpt>
      <trkpt lat="44.49712" lon="3.63504">
        <ele>1156.643</ele>
        <time>2019-11-14T12:28:01Z</time>
      </trkpt>
      <trkpt lat="44.49759" lon="3.636">
        <ele>1153.964</ele>
        <time>2019-11-14T12:28:21Z</time>
      </trkpt>
      <trkpt lat="44.49768" lon="3.63675">
        <ele>1146.61</ele>
        <time>2019-11-14T12:28:41Z</time>
      </trkpt>
      <trkpt lat="44.49716" lon="3.63817">
        <ele>1126.308</ele>
        <time>2019-11-14T12:29:01Z</time>
      </trkpt>
      <trkpt lat="44.49721" lon="3.63935">
        <ele>1119.618</ele>
        <time>2019-11-14T12:29:21Z</time>
      </trkpt>
      <trkpt lat="44.49741" lon="3.64027">
        <ele>1111.517</ele>
        <time>2019-11-14T12:29:41Z</time>
      </trkpt>
      <trkpt lat="44.49781" lon="3.641">
        <ele>1109.389</ele>
        <time>2019-11-14T12:30:01Z</time>
      </trkpt>
      <trkpt lat="44.49781" lon="3.64158">
        <ele>1097.426</ele>
        <time>2019-11-14T12:30:21Z</time>
      </trkpt>
      <trkpt lat="44.49756" lon="3.64233">
        <ele>1085.137</ele>
        <time>2019-11-14T12:30:41Z</time>
      </trkpt>
      <trkpt lat="44.49776" lon="3.64422">
        <ele>1074.718</ele>
        <time>2019-11-14T12:31:01Z</time>
      </trkpt>
      <trkpt lat="44.4973" lon="3.64551">
        <ele>1064.956</ele>
        <time>2019-11-14T12:31:21Z</time>
      </trkpt>
      <trkpt lat="44.49715" lon="3.64628">
        <ele>1064.584</ele>
        <time>2019-11-14T12:31:41Z</time>
      </trkpt>
      <trkpt lat="44.49681" lon="3.64658">
        <ele>1060.185</ele>
        <time>2019-11-14T12:32:01Z</time>
      </trkpt>
      <trkpt lat="44.49644" lon="3.64686">
        <ele>1052.089</ele>
        <time>2019-11-14T12:32:21Z</time>
      </trkpt>
      <trkpt lat="44.49547" lon="3.64798">
        <ele>1036.817</ele>
        <time>2019-11-14T12:32:41Z</time>
      </trkpt>
      <trkpt lat="44.49576" lon="3.64903">
        <ele>1033.008</ele>
        <time>2019-11-14T12:33:01Z</time>
      </trkpt>
      <trkpt lat="44.49655" lon="3.65077">
        <ele>1027.382</ele>
        <time>2019-11-14T12:33:21Z</time>
      </trkpt>
      <trkpt lat="44.49658" lon="3.65139">
        <ele>1022.631</ele>
        <time>2019-11-14T12:33:41Z</time>
      </trkpt>
      <trkpt lat="44.49643" lon="3.65323">
        <ele>1016.373</ele>
        <time>2019-11-14T12:34:01Z</time>
      </trkpt>
      <trkpt lat="44.49641" lon="3.65467">
        <ele>1010.88</ele>
        <time>2019-11-14T12:34:21Z</time>
      </trkpt>
      <trkpt lat="44.49654" lon="3.65512">
        <ele>1010.711</ele>
        <time>2019-11-14T12:34:41Z</time>
      </trkpt>
      <trkpt lat="44.49719" lon="3.65536">
        <ele>1016.242</ele>
        <time>2019-11-14T12:35:01Z</time>
      </trkpt>
      <trkpt lat="44.49787" lon="3.65628">
        <ele>1004.55</ele>
        <time>2019-11-14T12:35:21Z</time>
      </trkpt>
      <trkpt lat="44.4986" lon="3.6566">
        <ele>1008.338</ele>
        <time>2019-11-14T12:35:41Z</time>
      </trkpt>
      <trkpt lat="44.49897" lon="3.65703">
        <ele>999.935</ele>
        <time>2019-11-14T12:36:01Z</time>
      </trkpt>
      <trkpt lat="44.4998" lon="3.65753">
        <ele>1001.086</ele>
        <time>2019-11-14T12:36:21Z</time>
      </trkpt>
      <trkpt lat="44.5007" lon="3.65763">
        <ele>1015.914</ele>
        <time>2019-11-14T12:36:41Z</time>
      </trkpt>
      <trkpt lat="44.50108" lon="3.65806">
        <ele>1012.808</ele>
        <time>2019-11-14T12:37:01Z</time>
      </trkpt>
      <trkpt lat="44.50177" lon="3.65967">
        <ele>997.987</ele>
        <time>2019-11-14T12:37:21Z</time>
      </trkpt>
      <trkpt lat="44.50206" lon="3.66104">
        <ele>986.166</ele>
        <time>2019-11-14T12:37:41Z</time>
      </trkpt>
      <trkpt lat="44.50205" lon="3.66167">
        <ele>982.518</ele>
        <time>2019-11-14T12:38:01Z</time>
      </trkpt>
      <trkpt lat="44.50225" lon="3.66233">
        <ele>983.095</ele>
        <time>2019-11-14T12:38:21Z</time>
      </trkpt>
      <trkpt lat="44.50226" lon="3.66295">
        <ele>973.926</ele>
        <time>2019-11-14T12:38:41Z</time>
      </trkpt>
      <trkpt lat="44.50295" lon="3.66328">
        <ele>978.367</ele>
        <time>2019-11-14T12:39:01Z</time>
      </trkpt>
      <trkpt lat="44.50339" lon="3.66377">
        <ele>965.785</ele>
        <time>2019-11-14T12:39:21Z</time>
      </trkpt>
      <trkpt lat="44.50361" lon="3.66439">
        <ele>960.423</ele>
        <time>2019-11-14T12:39:41Z</time>
      </trkpt>
      <trkpt lat="44.50405" lon="3.66478">
        <ele>958.894</ele>
        <time>2019-11-14T12:40:01Z</time>
      </trkpt>
      <trkpt lat="44.5044" lon="3.66501">
        <ele>955.057</ele>
        <time>2019-11-14T12:40:21Z</time>
      </trkpt>
      <trkpt lat="44.50483" lon="3.66388">
        <ele>953.122</ele>
        <time>2019-11-14T12:40:41Z</time>
      </trkpt>
      <trkpt lat="44.50532" lon="3.66422">
        <ele>940.708</ele>
        <time>2019-11-14T12:41:01Z</time>
      </trkpt>
      <trkpt lat="44.50548" lon="3.66426">
        <ele>937</ele>
      </trkpt>
      <trkpt lat="44.50551" lon="3.66445">
        <ele>934.5</ele>
      </trkpt>
      <trkpt lat="44.50537" lon="3.66534">
        <ele>928.2</ele>
      </trkpt>
      <trkpt lat="44.50506" lon="3.66563">
        <ele>929.4</ele>
      </trkpt>
      <trkpt lat="44.50483" lon="3.66606">
        <ele>927</ele>
      </trkpt>
      <trkpt lat="44.50461" lon="3.66633">
        <ele>926</ele>
      </trkpt>
      <trkpt lat="44.50457" lon="3.66647">
        <ele>923.7</ele>
      </trkpt>
      <trkpt lat="44.50472" lon="3.66686">
        <ele>916.9</ele>
      </trkpt>
      <trkpt lat="44.50437" lon="3.66724">
        <ele>918.4</ele>
      </trkpt>
      <trkpt lat="44.50464" lon="3.66786">
        <ele>919.6</ele>
      </trkpt>
    </trkseg>
  </trk>
</gpx>